Time;durP1;ratioP1;P1;durP2;ratioP2;P2;SDS_P1;SDS_P2;PMS_P1;PMS_P2;Temp;Humidity;BMP_temperature;BMP_pressure;BME280_temperature;BME280_humidity;BME280_pressure;Samples;Min_cycle;Max_cycle;Signal;HPM_P1;HPM_P2
2023/07/26 00:01:56;;;;;;;;;;;;;;;9.75;49.28;95091.28;5002551;28;19948;-75
2023/07/26 00:04:21;;;;;;;;;;;;;;;9.66;49.87;95086.06;5019232;28;19917;-75
2023/07/26 00:06:46;;;;;;;;;;;;;;;9.57;50.33;95095.16;5016150;28;20366;-75
2023/07/26 00:09:11;;;;;;;;;;;;;;;9.50;48.10;95089.75;5019840;28;20626;-75
2023/07/26 00:11:37;;;;;;;;;;;;;;;9.47;48.48;95095.44;5017176;28;19917;-75
2023/07/26 00:14:03;;;;;;;;;;;;;;;9.41;49.49;95088.19;5020080;28;19921;-74
2023/07/26 00:16:29;;;;;;;;;;;;;;;9.41;50.54;95090.84;5018503;28;19913;-75
2023/07/26 00:18:54;;;;;;;;;;;;;;;9.39;50.71;95088.34;5019202;28;20118;-75
2023/07/26 00:21:19;;;;;;;;;;;;;;;9.39;50.87;95092.88;5019076;28;20050;-75
2023/07/26 00:23:44;;;;;;;;;;;;;;;9.40;50.17;95090.03;5018078;28;20135;-75
2023/07/26 00:26:10;;;;;;;;;;;;;;;9.38;49.84;95101.84;5019609;28;19952;-75
2023/07/26 00:28:35;;;;;;;;;;;;;;;9.38;50.73;95096.53;5020140;28;19921;-75
2023/07/26 00:31:00;;;;;;;;;;;;;;;9.35;51.43;95099.56;5024821;28;19927;-75
2023/07/26 00:33:25;;;;;;;;;;;;;;;9.17;51.94;95098.06;5017796;28;19928;-75
2023/07/26 00:35:50;;;;;;;;;;;;;;;9.16;52.96;95099.91;5018576;28;19921;-75
2023/07/26 00:38:16;;;;;;;;;;;;;;;9.16;52.70;95101.75;5017962;28;19921;-76
2023/07/26 00:40:41;;;;;;;;;;;;;;;9.18;52.68;95100.53;5019863;28;19920;-75
2023/07/26 00:43:06;;;;;;;;;;;;;;;9.33;52.12;95094.41;5019413;28;19925;-75
2023/07/26 00:45:32;;;;;;;;;;;;;;;9.27;52.82;95101.28;5019186;28;20009;-76
2023/07/26 00:47:57;;;;;;;;;;;;;;;9.00;53.00;95100.06;5018872;28;20365;-75
2023/07/26 00:50:22;;;;;;;;;;;;;;;8.85;53.87;95102.66;5019715;28;20031;-75
2023/07/26 00:52:47;;;;;;;;;;;;;;;8.95;53.35;95106.72;5038726;28;20016;-75
2023/07/26 00:55:13;;;;;;;;;;;;;;;8.97;53.49;95105.75;5021386;28;19967;-75
2023/07/26 00:57:38;;;;;;;;;;;;;;;8.78;53.75;95103.38;5038091;28;19921;-75
2023/07/26 01:00:03;;;;;;;;;;;;;;;8.95;52.44;95097.97;5037999;28;19925;-75
2023/07/26 01:02:29;;;;;;;;;;;;;;;8.93;53.52;95099.94;5023306;28;20147;-75
2023/07/26 01:04:54;;;;;;;;;;;;;;;8.98;53.16;95102.91;5018533;28;19983;-75
2023/07/26 01:07:32;;;;;;;;;;;;;;;8.92;53.45;95098.28;5037466;28;19921;-75
2023/07/26 01:10:16;;;;;;;;;;;;;;;8.61;52.74;95100.06;5020767;28;20682;-74
2023/07/26 01:12:54;;;;;;;;;;;;;;;8.66;54.71;95102.16;5022002;28;19988;-75
2023/07/26 01:15:20;;;;;;;;;;;;;;;8.90;53.11;95105.59;5034589;28;19925;-75
2023/07/26 01:17:46;;;;;;;;;;;;;;;9.02;51.23;95104.19;5019226;28;20344;-75
2023/07/26 01:20:12;;;;;;;;;;;;;;;9.10;49.28;95099.78;5021484;28;19927;-74
2023/07/26 01:22:37;;;;;;;;;;;;;;;9.18;50.76;95108.50;5021914;28;20412;-75
2023/07/26 01:25:02;;;;;;;;;;;;;;;9.22;50.40;95097.53;5037840;28;19917;-74
2023/07/26 01:27:28;;;;;;;;;;;;;;;9.30;51.21;95103.59;5022003;28;19916;-75
2023/07/26 01:29:56;;;;;;;;;;;;;;;9.37;49.88;95100.19;5022604;28;19925;-75
2023/07/26 01:32:21;;;;;;;;;;;;;;;9.42;50.95;95095.16;5021802;28;19917;-75
2023/07/26 01:34:46;;;;;;;;;;;;;;;9.43;50.61;95088.84;5037215;28;19974;-75
2023/07/26 01:37:11;;;;;;;;;;;;;;;9.45;50.32;95081.47;5022202;28;19913;-75
2023/07/26 01:39:37;;;;;;;;;;;;;;;9.51;51.39;95088.72;5003982;28;20029;-74
2023/07/26 01:42:02;;;;;;;;;;;;;;;9.59;51.23;95090.50;5037671;28;19967;-75
2023/07/26 01:44:34;;;;;;;;;;;;;;;9.65;50.99;95091.59;5022192;28;19924;-75
2023/07/26 01:46:59;;;;;;;;;;;;;;;9.70;50.01;95094.50;5019369;28;19917;-75
2023/07/26 01:49:25;;;;;;;;;;;;;;;9.74;49.43;95106.41;5021838;28;19944;-75
2023/07/26 01:51:50;;;;;;;;;;;;;;;9.77;50.39;95105.22;5019193;28;19967;-75
2023/07/26 01:54:15;;;;;;;;;;;;;;;9.88;50.07;95109.22;5022225;28;20301;-75
2023/07/26 01:56:40;;;;;;;;;;;;;;;9.91;48.24;95111.50;5021863;28;19966;-76
2023/07/26 01:59:05;;;;;;;;;;;;;;;9.96;50.15;95109.94;5021582;28;20020;-75
2023/07/26 02:01:31;;;;;;;;;;;;;;;10.09;49.91;95109.31;5021317;28;19924;-76
2023/07/26 02:03:56;;;;;;;;;;;;;;;10.11;48.98;95111.78;5020899;28;19932;-75
2023/07/26 02:06:21;;;;;;;;;;;;;;;10.26;48.50;95109.06;5018191;28;20327;-75
2023/07/26 02:08:46;;;;;;;;;;;;;;;10.14;48.29;95103.44;5020114;28;20019;-76
2023/07/26 02:11:12;;;;;;;;;;;;;;;10.15;48.55;95112.22;5021780;28;19922;-75
2023/07/26 02:13:37;;;;;;;;;;;;;;;10.19;48.46;95106.34;5022065;28;19920;-75
2023/07/26 02:16:02;;;;;;;;;;;;;;;10.23;48.91;95114.75;5021640;28;19974;-76
2023/07/26 02:18:27;;;;;;;;;;;;;;;10.38;48.88;95106.75;5020213;28;20503;-76
2023/07/26 02:20:53;;;;;;;;;;;;;;;10.55;48.37;95107.31;5021821;28;19921;-76
2023/07/26 02:23:18;;;;;;;;;;;;;;;10.38;48.08;95111.22;5020828;28;19928;-76
2023/07/26 02:25:44;;;;;;;;;;;;;;;10.40;48.17;95117.22;5022173;28;19956;-76
2023/07/26 02:28:09;;;;;;;;;;;;;;;10.41;48.44;95110.88;5021609;28;20282;-76
2023/07/26 02:30:34;;;;;;;;;;;;;;;10.44;48.50;95115.81;5021541;28;19948;-76
2023/07/26 02:32:59;;;;;;;;;;;;;;;10.56;48.15;95114.28;5022223;28;19917;-76
2023/07/26 02:35:24;;;;;;;;;;;;;;;10.66;47.66;95103.31;5021543;28;19932;-75
2023/07/26 02:37:50;;;;;;;;;;;;;;;10.53;47.85;95114.66;5020004;28;20566;-75
2023/07/26 02:40:15;;;;;;;;;;;;;;;10.55;48.07;95112.66;5021270;28;20392;-75
2023/07/26 02:42:40;;;;;;;;;;;;;;;10.46;48.48;95111.94;5021210;28;20067;-75
2023/07/26 02:45:06;;;;;;;;;;;;;;;10.55;48.63;95114.47;5019605;28;19921;-75
2023/07/26 02:47:32;;;;;;;;;;;;;;;10.56;48.85;95116.94;5021253;28;20409;-75
2023/07/26 02:50:00;;;;;;;;;;;;;;;10.60;48.78;95112.06;5019607;28;20472;-76
2023/07/26 02:52:25;;;;;;;;;;;;;;;10.65;48.72;95112.31;5020910;28;19921;-76
2023/07/26 02:54:50;;;;;;;;;;;;;;;10.42;49.26;95112.50;5021132;28;19924;-76
2023/07/26 02:57:15;;;;;;;;;;;;;;;10.22;49.80;95119.28;5021296;28;20407;-76
2023/07/26 02:59:41;;;;;;;;;;;;;;;10.26;49.89;95114.38;5020772;28;19975;-75
2023/07/26 03:02:06;;;;;;;;;;;;;;;10.53;49.04;95114.66;5019912;28;20073;-75
2023/07/26 03:04:31;;;;;;;;;;;;;;;10.69;48.32;95118.91;5016931;28;20306;-75
2023/07/26 03:06:56;;;;;;;;;;;;;;;10.65;48.37;95122.13;5019513;28;19917;-76
2023/07/26 03:09:22;;;;;;;;;;;;;;;10.69;48.71;95113.59;5021274;28;20027;-76
2023/07/26 03:11:47;;;;;;;;;;;;;;;10.77;48.40;95120.59;5019293;28;19921;-76
2023/07/26 03:14:12;;;;;;;;;;;;;;;10.55;48.81;95123.28;5020596;28;20527;-75
2023/07/26 03:16:37;;;;;;;;;;;;;;;10.66;48.67;95124.63;5021537;28;20281;-76
2023/07/26 03:19:02;;;;;;;;;;;;;;;10.77;48.40;95131.25;5019934;28;19929;-76
2023/07/26 03:21:28;;;;;;;;;;;;;;;10.84;48.15;95134.81;5021069;28;19921;-76
2023/07/26 03:23:53;;;;;;;;;;;;;;;10.82;48.00;95138.69;5020956;28;20117;-75
2023/07/26 03:26:18;;;;;;;;;;;;;;;10.74;48.37;95135.13;5020379;28;20718;-76
2023/07/26 03:28:43;;;;;;;;;;;;;;;10.82;48.06;95139.53;5003032;28;19967;-76
2023/07/26 03:31:09;;;;;;;;;;;;;;;10.84;48.08;95140.13;5020421;28;19921;-75
2023/07/26 03:33:34;;;;;;;;;;;;;;;10.84;48.09;95137.47;5019679;28;19952;-76
2023/07/26 03:35:59;;;;;;;;;;;;;;;10.84;48.07;95137.47;5020151;28;20542;-74
2023/07/26 03:38:24;;;;;;;;;;;;;;;10.97;47.83;95146.59;5018083;28;19925;-76
2023/07/26 03:40:50;;;;;;;;;;;;;;;11.15;47.59;95138.16;5020659;28;19917;-76
2023/07/26 03:43:15;;;;;;;;;;;;;;;11.07;47.40;95135.59;5020552;28;19918;-76
2023/07/26 03:45:40;;;;;;;;;;;;;;;11.10;47.24;95136.09;5020563;28;19921;-76
2023/07/26 03:48:05;;;;;;;;;;;;;;;11.07;47.50;95133.78;5001947;28;19929;-76
2023/07/26 03:50:31;;;;;;;;;;;;;;;11.11;47.35;95126.22;5020187;28;19917;-76
2023/07/26 03:52:57;;;;;;;;;;;;;;;11.08;47.31;95134.59;5020719;28;19925;-75
2023/07/26 03:55:22;;;;;;;;;;;;;;;11.02;47.82;95133.53;5019843;28;19965;-75
2023/07/26 03:57:47;;;;;;;;;;;;;;;11.03;47.67;95135.19;5020174;28;19925;-75
2023/07/26 04:00:13;;;;;;;;;;;;;;;11.11;47.60;95148.38;5020168;28;19921;-76
2023/07/26 04:02:38;;;;;;;;;;;;;;;11.22;47.26;95140.88;5019357;28;20012;-76
2023/07/26 04:05:03;;;;;;;;;;;;;;;11.30;47.00;95138.06;5019622;28;19929;-76
2023/07/26 04:07:28;;;;;;;;;;;;;;;11.35;46.77;95135.63;5018321;28;19925;-75
2023/07/26 04:09:54;;;;;;;;;;;;;;;11.36;47.02;95142.59;5020440;28;19917;-76
2023/07/26 04:12:19;;;;;;;;;;;;;;;11.30;46.73;95145.22;5018372;28;19969;-75
2023/07/26 04:14:44;;;;;;;;;;;;;;;11.19;47.26;95143.94;5018686;28;19917;-75
2023/07/26 04:17:09;;;;;;;;;;;;;;;11.13;47.75;95141.00;5020280;28;20150;-76
2023/07/26 04:19:35;;;;;;;;;;;;;;;11.10;47.79;95149.41;5019904;28;19948;-76
2023/07/26 04:22:00;;;;;;;;;;;;;;;11.10;48.09;95146.75;5018610;28;19925;-76
2023/07/26 04:24:25;;;;;;;;;;;;;;;11.16;47.77;95144.31;5019865;28;20509;-75
2023/07/26 04:26:52;;;;;;;;;;;;;;;11.09;47.61;95142.41;5021663;28;20279;-75
2023/07/26 04:29:17;;;;;;;;;;;;;;;11.12;47.78;95139.38;5024050;28;19951;-75
2023/07/26 04:31:42;;;;;;;;;;;;;;;11.23;47.49;95150.53;5022253;28;19956;-76
2023/07/26 04:34:08;;;;;;;;;;;;;;;11.30;47.57;95146.06;5023739;28;19913;-74
2023/07/26 04:36:33;;;;;;;;;;;;;;;11.32;47.29;95151.22;5023067;28;19967;-76
2023/07/26 04:38:58;;;;;;;;;;;;;;;11.41;46.90;95149.19;5022750;28;20383;-75
2023/07/26 04:41:23;;;;;;;;;;;;;;;11.49;46.84;95154.41;5022371;28;19913;-76
2023/07/26 04:43:49;;;;;;;;;;;;;;;11.58;46.91;95157.72;5023623;28;19925;-75
2023/07/26 04:46:15;;;;;;;;;;;;;;;11.60;46.76;95159.16;5020180;28;19947;-76
2023/07/26 04:48:40;;;;;;;;;;;;;;;11.63;46.96;95158.78;5023401;28;20445;-76
2023/07/26 04:51:05;;;;;;;;;;;;;;;11.67;46.44;95158.38;5021912;28;19935;-76
2023/07/26 04:53:31;;;;;;;;;;;;;;;11.69;46.40;95159.03;5021777;28;20618;-76
2023/07/26 04:55:56;;;;;;;;;;;;;;;11.76;46.24;95158.03;5022444;28;19925;-76
2023/07/26 04:58:21;;;;;;;;;;;;;;;11.80;46.50;95163.78;5023429;28;19971;-75
2023/07/26 05:00:46;;;;;;;;;;;;;;;11.82;46.57;95166.25;5020529;28;19917;-75
2023/07/26 05:03:12;;;;;;;;;;;;;;;11.87;46.40;95167.31;5023705;28;21172;-76
2023/07/26 05:05:37;;;;;;;;;;;;;;;11.97;46.45;95158.13;5021825;28;20098;-76
2023/07/26 05:08:02;;;;;;;;;;;;;;;12.03;46.34;95166.16;5021852;28;19929;-76
2023/07/26 05:10:28;;;;;;;;;;;;;;;12.15;45.79;95173.63;5023502;28;19939;-76
2023/07/26 05:12:53;;;;;;;;;;;;;;;12.26;45.83;95172.25;5022643;28;19921;-76
2023/07/26 05:15:19;;;;;;;;;;;;;;;12.27;45.48;95164.03;5021412;28;19940;-75
2023/07/26 05:17:44;;;;;;;;;;;;;;;12.40;45.35;95165.09;5005833;28;19942;-76
2023/07/26 05:20:10;;;;;;;;;;;;;;;12.54;44.99;95168.63;5022602;28;19920;-76
2023/07/26 05:22:35;;;;;;;;;;;;;;;12.42;45.27;95173.75;5005518;28;19917;-76
2023/07/26 05:25:00;;;;;;;;;;;;;;;12.54;44.73;95176.63;5023095;28;19964;-76
2023/07/26 05:27:26;;;;;;;;;;;;;;;12.57;44.81;95176.25;5022045;28;20381;-76
2023/07/26 05:29:53;;;;;;;;;;;;;;;12.70;44.22;95172.78;5020452;28;19917;-77
2023/07/26 05:32:18;;;;;;;;;;;;;;;12.88;43.94;95168.69;5014726;28;20401;-76
2023/07/26 05:34:43;;;;;;;;;;;;;;;12.94;43.83;95173.22;5020758;28;19931;-75
2023/07/26 05:37:08;;;;;;;;;;;;;;;13.03;43.45;95172.03;5021832;28;19960;-75
2023/07/26 05:39:34;;;;;;;;;;;;;;;13.05;43.46;95182.50;5022529;28;19972;-76
2023/07/26 05:41:59;;;;;;;;;;;;;;;13.06;43.50;95178.81;5022680;28;19921;-75
2023/07/26 05:44:24;;;;;;;;;;;;;;;13.07;43.75;95175.13;5022176;28;19925;-75
2023/07/26 05:46:49;;;;;;;;;;;;;;;12.96;43.66;95176.53;5021537;28;19924;-76
2023/07/26 05:49:15;;;;;;;;;;;;;;;12.76;44.10;95189.84;5022480;28;19921;-77
2023/07/26 05:51:40;;;;;;;;;;;;;;;12.41;44.91;95186.25;5021132;28;19924;-75
2023/07/26 05:54:05;;;;;;;;;;;;;;;12.40;45.30;95181.13;5020125;28;20012;-76
2023/07/26 05:56:30;;;;;;;;;;;;;;;12.49;44.29;95184.44;5021902;28;19948;-76
2023/07/26 05:58:56;;;;;;;;;;;;;;;12.33;45.23;95197.09;5019791;28;19965;-75
2023/07/26 06:01:21;;;;;;;;;;;;;;;12.24;45.28;95187.66;5022806;28;19971;-75
2023/07/26 06:03:46;;;;;;;;;;;;;;;10.52;49.11;95198.19;5035748;28;19917;-76
2023/07/26 06:06:11;;;;;;;;;;;;;;;11.53;47.10;95192.97;5021893;28;19933;-76
2023/07/26 06:08:37;;;;;;;;;;;;;;;10.84;48.25;95197.88;5021734;28;20282;-75
2023/07/26 06:11:02;;;;;;;;;;;;;;;11.63;47.12;95196.09;5020406;28;20012;-75
2023/07/26 06:13:27;;;;;;;;;;;;;;;9.78;50.80;95198.06;5021712;28;19928;-75
2023/07/26 06:15:52;;;;;;;;;;;;;;;11.10;48.40;95199.19;5022356;28;19924;-76
2023/07/26 06:18:19;;;;;;;;;;;;;;;11.23;48.26;95198.47;5019481;28;19925;-75
2023/07/26 06:20:44;;;;;;;;;;;;;;;10.47;49.37;95203.22;5020717;28;20444;-75
2023/07/26 06:23:10;;;;;;;;;;;;;;;11.20;48.66;95201.53;5002422;28;20050;-76
2023/07/26 06:25:35;;;;;;;;;;;;;;;11.11;48.78;95209.66;5021359;28;20391;-76
2023/07/26 06:28:00;;;;;;;;;;;;;;;10.75;49.00;95213.19;5020965;28;19925;-76
2023/07/26 06:30:25;;;;;;;;;;;;;;;10.52;49.20;95208.00;5036266;28;20016;-76
2023/07/26 06:32:51;;;;;;;;;;;;;;;9.68;51.92;95205.47;5018757;28;19956;-75
2023/07/26 06:35:17;;;;;;;;;;;;;;;10.71;49.82;95206.59;5036207;28;20621;-76
2023/07/26 06:37:42;;;;;;;;;;;;;;;11.59;47.65;95213.50;5036348;28;20004;-75
2023/07/26 06:40:07;;;;;;;;;;;;;;;11.58;47.53;95213.69;5017830;28;20391;-75
2023/07/26 06:42:33;;;;;;;;;;;;;;;12.05;47.08;95210.50;5020276;28;19931;-75
2023/07/26 06:44:58;;;;;;;;;;;;;;;12.44;46.03;95216.25;5020949;28;20453;-75
2023/07/26 06:47:23;;;;;;;;;;;;;;;12.40;45.60;95210.47;5019294;28;20023;-74
2023/07/26 06:49:49;;;;;;;;;;;;;;;11.95;46.54;95217.03;5019191;28;19927;-75
2023/07/26 06:52:14;;;;;;;;;;;;;;;12.04;47.10;95215.03;5018425;28;19961;-75
2023/07/26 06:54:40;;;;;;;;;;;;;;;11.88;46.37;95214.31;5020761;28;19967;-75
2023/07/26 06:57:05;;;;;;;;;;;;;;;12.25;45.91;95210.63;5020902;28;19924;-75
2023/07/26 06:59:30;;;;;;;;;;;;;;;11.92;46.72;95217.41;5019305;28;20603;-76
2023/07/26 07:01:56;;;;;;;;;;;;;;;12.05;46.52;95216.66;5019355;28;20401;-75
2023/07/26 07:04:21;;;;;;;;;;;;;;;12.09;45.90;95209.09;5020721;28;20495;-75
2023/07/26 07:06:46;;;;;;;;;;;;;;;11.66;46.85;95215.41;5020285;28;19952;-75
2023/07/26 07:09:12;;;;;;;;;;;;;;;11.98;46.76;95211.31;5020231;28;20003;-67
2023/07/26 07:11:37;;;;;;;;;;;;;;;11.80;47.05;95214.44;5019932;28;20002;-66
2023/07/26 07:14:02;;;;;;;;;;;;;;;12.52;45.95;95211.53;5017717;28;19952;-67
2023/07/26 07:16:28;;;;;;;;;;;;;;;11.48;46.21;95217.53;5019429;28;19929;-67
2023/07/26 07:18:54;;;;;;;;;;;;;;;10.77;47.87;95220.97;5016645;28;20027;-68
2023/07/26 07:21:20;;;;;;;;;;;;;;;10.25;49.46;95227.16;5034300;28;20028;-68
2023/07/26 07:23:46;;;;;;;;;;;;;;;9.90;51.12;95214.41;5017878;28;19983;-67
2023/07/26 07:26:11;;;;;;;;;;;;;;;10.59;49.34;95214.22;5014084;28;20556;-66
2023/07/26 07:28:38;;;;;;;;;;;;;;;9.29;51.36;95216.13;5018341;28;20213;-68
2023/07/26 07:31:04;;;;;;;;;;;;;;;10.31;50.19;95206.97;5018190;28;19995;-67
2023/07/26 07:33:30;;;;;;;;;;;;;;;10.81;48.08;95216.94;5019121;28;19932;-66
2023/07/26 07:35:55;;;;;;;;;;;;;;;11.11;46.54;95209.66;5017714;28;19928;-66
2023/07/26 07:38:20;;;;;;;;;;;;;;;10.24;49.41;95222.84;5015545;28;19929;-68
2023/07/26 07:40:46;;;;;;;;;;;;;;;10.60;48.64;95208.72;5018834;28;19921;-67
2023/07/26 07:43:11;;;;;;;;;;;;;;;11.48;47.89;95222.03;5016082;28;19921;-67
2023/07/26 07:45:40;;;;;;;;;;;;;;;12.01;45.30;95215.41;5017742;28;19929;-68
2023/07/26 07:48:06;;;;;;;;;;;;;;;10.94;47.40;95227.69;5020097;28;20622;-66
2023/07/26 07:50:31;;;;;;;;;;;;;;;10.54;47.29;95243.25;5017388;28;20022;-68
2023/07/26 07:52:56;;;;;;;;;;;;;;;10.19;49.07;95233.19;5015504;28;19977;-68
2023/07/26 07:55:22;;;;;;;;;;;;;;;10.71;48.75;95227.88;5015560;28;20020;-68
2023/07/26 07:57:47;;;;;;;;;;;;;;;11.46;45.94;95226.75;5018647;28;19971;-66
2023/07/26 08:00:12;;;;;;;;;;;;;;;10.75;47.94;95237.94;5018943;28;19925;-68
2023/07/26 08:02:38;;;;;;;;;;;;;;;10.64;47.12;95240.28;5017975;28;20032;-68
2023/07/26 08:05:03;;;;;;;;;;;;;;;10.30;47.71;95239.91;5019343;28;20337;-68
2023/07/26 08:07:28;;;;;;;;;;;;;;;10.45;49.19;95239.88;5017542;28;19921;-68
2023/07/26 08:09:54;;;;;;;;;;;;;;;10.11;49.25;95244.78;5018672;28;19925;-67
2023/07/26 08:12:19;;;;;;;;;;;;;;;11.07;46.64;95237.66;5016923;28;19928;-67
2023/07/26 08:14:47;;;;;;;;;;;;;;;11.75;46.50;95236.41;5017702;28;20356;-68
2023/07/26 08:17:12;;;;;;;;;;;;;;;12.05;45.37;95229.16;5015499;28;20558;-68
2023/07/26 08:19:37;;;;;;;;;;;;;;;11.82;45.23;95232.94;5017631;28;19932;-68
2023/07/26 08:22:03;;;;;;;;;;;;;;;11.76;45.42;95231.88;5013959;28;20439;-69
2023/07/26 08:24:29;;;;;;;;;;;;;;;11.99;44.61;95246.78;5019129;28;19917;-67
2023/07/26 08:26:54;;;;;;;;;;;;;;;12.33;44.37;95247.81;5015888;28;19954;-67
2023/07/26 08:29:19;;;;;;;;;;;;;;;11.33;45.48;95246.94;5018478;28;19925;-67
2023/07/26 08:31:44;;;;;;;;;;;;;;;10.97;47.20;95248.63;5015998;28;19925;-68
2023/07/26 08:34:10;;;;;;;;;;;;;;;11.69;45.88;95245.16;5018705;28;19921;-68
2023/07/26 08:36:35;;;;;;;;;;;;;;;12.17;44.70;95237.50;5019950;28;19913;-68
2023/07/26 08:39:00;;;;;;;;;;;;;;;12.76;43.83;95243.25;5018560;28;20546;-67
2023/07/26 08:41:25;;;;;;;;;;;;;;;12.52;43.18;95240.91;5017933;28;19991;-67
2023/07/26 08:43:51;;;;;;;;;;;;;;;12.33;44.08;95245.16;5031164;28;19976;-67
2023/07/26 08:46:16;;;;;;;;;;;;;;;12.39;43.96;95235.53;5016490;28;20394;-66
2023/07/26 08:48:41;;;;;;;;;;;;;;;12.35;45.51;95244.97;5017879;28;20610;-67
2023/07/26 08:51:07;;;;;;;;;;;;;;;12.02;44.81;95236.56;5017951;28;19927;-67
2023/07/26 08:53:32;;;;;;;;;;;;;;;11.73;45.88;95240.28;5018331;28;19921;-67
2023/07/26 08:55:57;;;;;;;;;;;;;;;11.95;46.05;95250.88;5018943;28;20369;-68
2023/07/26 08:58:23;;;;;;;;;;;;;;;11.92;44.96;95236.09;5018225;28;19925;-66
2023/07/26 09:00:48;;;;;;;;;;;;;;;12.86;43.74;95241.03;5019181;28;19971;-67
2023/07/26 09:03:13;;;;;;;;;;;;;;;13.05;43.57;95235.94;5018316;28;20404;-67
2023/07/26 09:05:39;;;;;;;;;;;;;;;12.67;43.16;95237.28;5014528;28;19964;-67
2023/07/26 09:08:04;;;;;;;;;;;;;;;12.23;44.63;95245.53;5011995;28;19921;-67
2023/07/26 09:10:30;;;;;;;;;;;;;;;12.10;45.07;95238.25;5017013;28;20459;-68
2023/07/26 09:13:10;;;;;;;;;;;;;;;11.95;45.86;95237.53;5022354;28;19932;-67
2023/07/26 09:15:37;;;;;;;;;;;;;;;11.93;45.47;95240.38;5021119;28;20313;-67
2023/07/26 09:18:03;;;;;;;;;;;;;;;12.05;45.04;95242.50;5022099;28;20471;-68
2023/07/26 09:20:29;;;;;;;;;;;;;;;11.04;48.06;95242.53;5018617;28;19929;-67
2023/07/26 09:22:58;;;;;;;;;;;;;;;12.08;45.95;95236.81;5021147;28;19925;-68
2023/07/26 09:25:31;;;;;;;;;;;;;;;12.53;44.01;95241.75;5021339;28;19917;-69
2023/07/26 09:27:58;;;;;;;;;;;;;;;12.40;43.47;95230.00;5021468;28;19921;-67
2023/07/26 09:30:24;;;;;;;;;;;;;;;13.13;42.00;95222.38;5021065;28;20295;-68
2023/07/26 09:32:49;;;;;;;;;;;;;;;12.75;42.88;95225.59;5038004;28;19925;-68
2023/07/26 09:35:14;;;;;;;;;;;;;;;12.42;43.57;95232.47;5021010;28;20024;-67
2023/07/26 09:37:39;;;;;;;;;;;;;;;13.20;41.98;95225.09;5020443;28;20015;-67
2023/07/26 09:40:05;;;;;;;;;;;;;;;13.73;41.38;95225.28;5021311;28;19963;-68
2023/07/26 09:42:43;;;;;;;;;;;;;;;13.83;40.51;95223.81;5019492;28;20386;-68
2023/07/26 09:45:18;;;;;;;;;;;;;;;13.51;39.32;95226.34;5020414;28;19925;-67
2023/07/26 09:47:44;;;;;;;;;;;;;;;13.56;39.49;95223.03;5019297;28;20004;-68
2023/07/26 09:50:25;;;;;;;;;;;;;;;13.46;41.55;95233.31;5021116;28;20028;-68
2023/07/26 09:52:51;;;;;;;;;;;;;;;13.51;40.72;95236.19;5020994;28;19972;-68
2023/07/26 09:55:16;;;;;;;;;;;;;;;13.24;41.03;95223.66;5021241;28;19979;-69
2023/07/26 09:57:42;;;;;;;;;;;;;;;13.16;41.07;95226.53;5022056;28;20383;-68
2023/07/26 10:00:08;;;;;;;;;;;;;;;13.67;41.82;95227.75;5019937;28;20305;-69
2023/07/26 10:02:33;;;;;;;;;;;;;;;13.49;41.96;95227.56;5020830;28;19971;-68
2023/07/26 10:04:58;;;;;;;;;;;;;;;13.83;40.86;95226.50;5019717;28;20230;-67
2023/07/26 10:07:24;;;;;;;;;;;;;;;13.16;39.70;95223.84;5022268;28;19929;-66
2023/07/26 10:09:49;;;;;;;;;;;;;;;12.58;40.71;95233.16;5019402;28;20540;-67
2023/07/26 10:12:15;;;;;;;;;;;;;;;12.91;41.45;95227.88;5015660;28;19925;-67
2023/07/26 10:14:40;;;;;;;;;;;;;;;13.40;40.48;95232.28;5020007;28;19921;-68
2023/07/26 10:17:06;;;;;;;;;;;;;;;13.44;39.36;95230.84;5020205;28;19967;-66
2023/07/26 10:19:31;;;;;;;;;;;;;;;13.26;40.36;95226.13;5021738;28;19921;-68
2023/07/26 10:21:57;;;;;;;;;;;;;;;13.00;41.18;95222.38;5018363;28;19921;-66
2023/07/26 10:24:22;;;;;;;;;;;;;;;12.89;39.97;95215.75;5017213;28;20362;-68
2023/07/26 10:26:49;;;;;;;;;;;;;;;14.08;38.89;95225.03;5019032;28;22088;-67
2023/07/26 10:29:15;;;;;;;;;;;;;;;13.62;39.82;95227.56;5033172;28;20011;-76
2023/07/26 10:31:40;;;;;;;;;;;;;;;13.52;40.34;95219.13;5018629;28;20083;-76
2023/07/26 10:34:05;;;;;;;;;;;;;;;13.29;40.92;95225.69;5018433;28;19917;-76
2023/07/26 10:36:31;;;;;;;;;;;;;;;12.34;43.52;95244.13;5021882;28;19988;-75
2023/07/26 10:38:56;;;;;;;;;;;;;;;11.56;45.48;95259.22;5021243;28;20002;-76
2023/07/26 10:41:22;;;;;;;;;;;;;;;11.59;47.08;95240.16;5003407;28;19996;-76
2023/07/26 10:43:48;;;;;;;;;;;;;;;11.20;48.72;95236.16;5016995;28;20652;-76
2023/07/26 10:46:14;;;;;;;;;;;;;;;11.45;49.10;95238.41;5018498;28;19928;-77
2023/07/26 10:48:40;;;;;;;;;;;;;;;11.66;50.91;95250.06;5018254;28;20477;-76
2023/07/26 10:51:21;;;;;;;;;;;;;;;11.75;49.66;95241.72;5020001;28;19974;-76
2023/07/26 10:53:46;;;;;;;;;;;;;;;11.82;50.17;95262.25;5034345;28;19917;-75
2023/07/26 10:56:12;;;;;;;;;;;;;;;11.61;51.77;95259.47;5018212;28;19921;-75
2023/07/26 10:58:56;;;;;;;;;;;;;;;12.17;49.61;95272.97;5019469;28;19925;-76
2023/07/26 11:01:30;;;;;;;;;;;;;;;12.19;50.95;95262.94;5020851;28;19974;-75
2023/07/26 11:03:56;;;;;;;;;;;;;;;13.05;48.35;95257.31;5018379;28;19948;-76
2023/07/26 11:06:22;;;;;;;;;;;;;;;12.84;48.23;95267.13;5018992;28;19952;-76
2023/07/26 11:08:47;;;;;;;;;;;;;;;13.85;46.56;95250.38;5002208;28;19967;-65
2023/07/26 11:11:16;;;;;;;;;;;;;;;13.97;42.97;95244.41;5033442;28;19921;-64
2023/07/26 11:13:42;;;;;;;;;;;;;;;12.26;47.44;95258.47;5017413;28;19921;-65
2023/07/26 11:16:07;;;;;;;;;;;;;;;12.44;48.02;95254.44;5034562;28;20457;-65
2023/07/26 11:18:38;;;;;;;;;;;;;;;12.26;47.53;95274.50;5020269;28;19936;-65
2023/07/26 11:21:03;;;;;;;;;;;;;;;12.34;47.68;95262.00;5020829;28;19936;-64
2023/07/26 11:23:28;;;;;;;;;;;;;;;12.37;47.79;95259.75;5014044;28;20554;-65
2023/07/26 11:25:54;;;;;;;;;;;;;;;12.37;44.73;95261.59;5015502;28;20627;-65
2023/07/26 11:28:20;;;;;;;;;;;;;;;11.90;47.25;95262.94;5020908;28;20130;-65
2023/07/26 11:30:46;;;;;;;;;;;;;;;12.62;45.75;95253.09;5019365;28;19960;-65
2023/07/26 11:33:11;;;;;;;;;;;;;;;12.56;45.04;95254.69;5018335;28;19929;-65
2023/07/26 11:35:41;;;;;;;;;;;;;;;12.39;46.18;95264.91;5019824;28;19921;-65
2023/07/26 11:38:06;;;;;;;;;;;;;;;12.39;45.80;95259.56;5019591;28;19929;-65
2023/07/26 11:40:37;;;;;;;;;;;;;;;12.90;44.88;95249.47;5017616;28;19925;-65
2023/07/26 11:43:02;;;;;;;;;;;;;;;13.42;43.51;95246.25;5018053;28;19963;-64
2023/07/26 11:45:28;;;;;;;;;;;;;;;13.07;40.48;95249.94;5017069;28;19941;-65
2023/07/26 11:47:53;;;;;;;;;;;;;;;12.70;43.75;95254.72;5017342;28;19921;-65
2023/07/26 11:50:19;;;;;;;;;;;;;;;12.69;43.08;95253.09;5018105;28;19928;-64
2023/07/26 11:52:44;;;;;;;;;;;;;;;13.78;42.40;95249.56;5019491;28;19917;-64
2023/07/26 11:55:09;;;;;;;;;;;;;;;13.78;39.44;95255.75;5020434;28;19944;-65
2023/07/26 11:57:35;;;;;;;;;;;;;;;14.59;39.74;95257.41;5014449;28;19936;-64
2023/07/26 12:00:01;;;;;;;;;;;;;;;14.74;39.08;95262.53;5020728;28;19995;-65
2023/07/26 12:02:26;;;;;;;;;;;;;;;15.29;37.92;95265.72;5018286;28;20019;-76
2023/07/26 12:05:11;;;;;;;;;;;;;;;14.58;38.14;95261.09;5013622;28;20012;-77
2023/07/26 12:07:37;;;;;;;;;;;;;;;14.10;39.02;95268.47;5031119;28;19925;-77
2023/07/26 12:10:02;;;;;;;;;;;;;;;14.35;39.29;95275.84;5017153;28;19979;-77
2023/07/26 12:12:28;;;;;;;;;;;;;;;15.05;39.35;95270.81;5035378;28;19932;-77
2023/07/26 12:14:53;;;;;;;;;;;;;;;14.42;40.43;95271.25;5002815;28;20833;-77
2023/07/26 12:17:18;;;;;;;;;;;;;;;14.19;38.20;95267.22;5011847;28;19967;-76
2023/07/26 12:19:44;;;;;;;;;;;;;;;14.50;38.25;95272.91;5018209;28;19933;-77
2023/07/26 12:22:10;;;;;;;;;;;;;;;13.89;40.37;95265.00;5019083;28;19937;-76
2023/07/26 12:24:51;;;;;;;;;;;;;;;14.02;40.87;95266.00;5019961;28;19913;-76
2023/07/26 12:27:16;;;;;;;;;;;;;;;13.97;39.15;95265.84;4982764;28;19967;-77
2023/07/26 12:29:42;;;;;;;;;;;;;;;13.31;40.83;95277.94;5000898;28;20458;-77
2023/07/26 12:32:10;;;;;;;;;;;;;;;12.83;44.30;95289.53;5000450;28;19917;-77
2023/07/26 12:34:40;;;;;;;;;;;;;;;12.79;47.15;95299.75;5010481;28;19921;-76
2023/07/26 12:37:06;;;;;;;;;;;;;;;11.45;50.72;95323.69;5019139;28;19921;-76
2023/07/26 12:39:31;;;;;;;;;;;;;;;10.39;54.10;95334.56;5019097;28;19924;-74
2023/07/26 12:41:56;;;;;;;;;;;;;;;10.50;56.02;95349.25;5034656;28;20613;-75